Sparkman, Arkansas
Current Conditions -  °F | °C
As of 2:56 PM on Thursday 27 Nov 2014 (Local Time) from KADF Reporting Station
Clear Clear  
Wind Chill: 50°   Ceiling: Unl
Heat Index: 50°   Visibility: 10mi
Dew Point: 29°   Wind: 5mph
Humidity: 45%   Direction: 70°ENE
Pressure: 30.48"   Gusts: NA
Location:  33.92°N, 92.85°W
Report Text: KADF 272056Z AUTO 07004KT 10SM CLR 10/M02 A3048 RMK AO2 56023 T01001016 SLP339
Loading
Personal Weather Stations






























Interactive Weather Map New forecast layout! Learn more

10-Day Weather Forecast

Advertisements
Track Severe Weather on mobile